createdAt,value
2018-09-19T00:00:07.717Z,17.92
2018-09-19T00:02:38.012Z,17.88
2018-09-19T00:05:08.586Z,17.88
2018-09-19T00:07:39.092Z,17.81
2018-09-19T00:10:10.111Z,17.79
2018-09-19T00:12:40.566Z,17.75
2018-09-19T00:15:11.052Z,17.72
2018-09-19T00:17:41.530Z,17.69
2018-09-19T00:20:11.924Z,17.65
2018-09-19T00:22:42.485Z,17.59
2018-09-19T00:25:12.746Z,17.59
2018-09-19T00:27:43.151Z,17.59
2018-09-19T00:30:13.546Z,17.52
2018-09-19T00:32:44.008Z,17.49
2018-09-19T00:35:14.505Z,17.46
2018-09-19T00:37:44.897Z,17.44
2018-09-19T00:40:15.393Z,17.43
2018-09-19T00:42:45.691Z,17.41
2018-09-19T00:45:22.871Z,17.38
2018-09-19T00:47:53.154Z,17.33
2018-09-19T00:50:23.607Z,17.36
2018-09-19T00:52:53.941Z,17.34
2018-09-19T00:55:24.478Z,17.33
2018-09-19T00:57:54.955Z,17.26
2018-09-19T01:00:25.346Z,17.25
2018-09-19T01:02:55.717Z,17.07
2018-09-19T01:05:26.320Z,17.00
2018-09-19T01:07:56.704Z,16.93
2018-09-19T01:10:27.164Z,16.79
2018-09-19T01:12:57.468Z,16.87
2018-09-19T01:15:27.767Z,16.76
2018-09-19T01:17:58.144Z,16.65
2018-09-19T01:20:28.944Z,16.62
2018-09-19T01:22:59.452Z,16.65
2018-09-19T01:25:29.941Z,16.67
2018-09-19T01:28:00.408Z,16.64
2018-09-19T01:30:31.380Z,16.54
2018-09-19T01:33:01.873Z,16.55
2018-09-19T01:35:32.580Z,16.53
2018-09-19T01:38:03.035Z,16.52
2018-09-19T01:40:33.457Z,16.45
2018-09-19T01:43:03.933Z,16.40
2018-09-19T01:45:34.434Z,16.43
2018-09-19T01:48:05.038Z,16.37
2018-09-19T01:50:35.322Z,16.34
2018-09-19T01:53:05.783Z,16.30
2018-09-19T01:55:36.234Z,16.28
2018-09-19T01:58:06.646Z,16.27
2018-09-19T02:00:36.756Z,16.24
2018-09-19T02:03:07.297Z,16.23
2018-09-19T02:05:37.873Z,16.23
2018-09-19T02:08:08.250Z,16.21
2018-09-19T02:10:38.644Z,16.19
2018-09-19T02:13:09.051Z,16.16
2018-09-19T02:15:39.275Z,16.14
2018-09-19T02:18:09.656Z,16.10
2018-09-19T02:20:40.148Z,16.09
2018-09-19T02:23:10.548Z,16.07
2018-09-19T02:25:40.784Z,16.09
2018-09-19T02:28:11.261Z,16.01
2018-09-19T02:30:41.746Z,15.95
2018-09-19T02:33:11.952Z,15.91
2018-09-19T02:35:42.203Z,15.90
2018-09-19T02:38:12.496Z,15.85
2018-09-19T02:40:42.902Z,15.84
2018-09-19T02:43:13.284Z,15.80
2018-09-19T02:45:43.550Z,15.81
2018-09-19T02:48:13.892Z,15.82
2018-09-19T02:50:44.413Z,15.84
2018-09-19T02:53:14.857Z,15.82
2018-09-19T02:55:45.243Z,15.83
2018-09-19T02:58:15.541Z,15.81
2018-09-19T03:00:46.090Z,15.84
2018-09-19T03:03:16.496Z,15.84
2018-09-19T03:05:46.884Z,15.63
2018-09-19T03:08:17.145Z,15.47
2018-09-19T03:10:47.638Z,15.39
2018-09-19T03:13:18.120Z,15.25
2018-09-19T03:15:48.607Z,15.07
2018-09-19T03:18:19.254Z,15.00
2018-09-19T03:20:49.640Z,14.92
2018-09-19T03:23:19.938Z,14.93
2018-09-19T03:25:50.419Z,15.00
2018-09-19T03:28:20.831Z,15.00
2018-09-19T03:30:51.804Z,14.90
2018-09-19T03:33:22.199Z,14.90
2018-09-19T03:35:52.555Z,14.95
2018-09-19T03:38:22.952Z,14.97
2018-09-19T03:40:53.502Z,15.07
2018-09-19T03:43:23.919Z,15.11
2018-09-19T03:45:54.255Z,15.18
2018-09-19T03:48:24.649Z,15.26
2018-09-19T03:50:55.151Z,15.32
2018-09-19T03:53:26.049Z,15.30
2018-09-19T03:55:56.543Z,15.30
2018-09-19T03:58:27.140Z,15.33
2018-09-19T04:00:58.345Z,15.29
2018-09-19T04:03:28.675Z,15.26
2018-09-19T04:05:59.201Z,15.25
2018-09-19T04:08:29.427Z,15.25
2018-09-19T04:10:59.788Z,15.20
2018-09-19T04:13:30.072Z,15.16
2018-09-19T04:16:00.261Z,15.14
2018-09-19T04:18:30.639Z,15.14
2018-09-19T04:21:01.100Z,15.12
2018-09-19T04:23:31.331Z,15.17
2018-09-19T04:26:01.819Z,15.14
2018-09-19T04:28:32.181Z,15.11
2018-09-19T04:31:02.570Z,15.10
2018-09-19T04:33:32.900Z,15.05
2018-09-19T04:36:03.529Z,15.08
2018-09-19T04:38:34.009Z,15.03
2018-09-19T04:41:04.093Z,15.03
2018-09-19T04:43:34.172Z,14.96
2018-09-19T04:46:04.329Z,14.98
2018-09-19T04:48:34.393Z,14.94
2018-09-19T04:51:04.526Z,14.90
2018-09-19T04:53:34.635Z,14.94
2018-09-19T04:56:05.146Z,14.96
2018-09-19T04:58:35.584Z,14.98
2018-09-19T05:01:06.299Z,14.94
2018-09-19T05:03:36.792Z,14.91
2018-09-19T05:06:07.452Z,14.94
2018-09-19T05:08:38.049Z,14.95
2018-09-19T05:11:08.395Z,14.97
2018-09-19T05:13:38.625Z,14.99
2018-09-19T05:16:09.272Z,14.99
2018-09-19T05:18:39.566Z,15.00
2018-09-19T05:21:09.984Z,15.15
2018-09-19T05:23:40.220Z,15.16
2018-09-19T05:26:10.666Z,15.23
2018-09-19T05:28:41.365Z,15.27
2018-09-19T05:31:11.928Z,15.41
2018-09-19T05:33:42.373Z,15.49
2018-09-19T05:36:12.684Z,15.62
2018-09-19T05:38:42.984Z,15.75
2018-09-19T05:41:13.314Z,15.88
2018-09-19T05:43:43.638Z,15.99
2018-09-19T05:46:14.259Z,16.18
2018-09-19T05:48:44.649Z,17.20
2018-09-19T05:51:15.203Z,18.62
2018-09-19T05:53:45.708Z,19.60
2018-09-19T05:56:16.200Z,20.40
2018-09-19T05:58:46.660Z,20.80
2018-09-19T06:01:17.036Z,21.33
2018-09-19T06:03:47.883Z,21.96
2018-09-19T06:06:18.320Z,22.39
2018-09-19T06:08:49.691Z,22.52
2018-09-19T06:11:19.983Z,22.83
2018-09-19T06:13:51.296Z,23.31
2018-09-19T06:16:21.640Z,23.65
2018-09-19T06:18:52.317Z,24.10
2018-09-19T06:21:22.747Z,24.23
2018-09-19T06:23:53.142Z,24.67
2018-09-19T06:26:23.724Z,24.84
2018-09-19T06:28:54.227Z,25.02
2018-09-19T06:31:25.267Z,25.53
2018-09-19T06:33:55.631Z,25.64
2018-09-19T06:36:26.048Z,25.94
2018-09-19T06:38:56.304Z,26.26
2018-09-19T06:41:26.766Z,25.42
2018-09-19T06:43:57.166Z,26.24
2018-09-19T06:46:27.688Z,26.94
2018-09-19T06:48:58.054Z,27.44
2018-09-19T06:51:28.639Z,27.33
2018-09-19T06:53:59.089Z,25.74
2018-09-19T06:56:29.563Z,24.79
2018-09-19T06:58:59.881Z,25.84
2018-09-19T07:01:30.297Z,26.71
2018-09-19T07:04:00.597Z,27.54
2018-09-19T07:06:30.962Z,28.19
2018-09-19T07:09:01.280Z,28.29
2018-09-19T07:11:31.791Z,28.92
2018-09-19T07:14:02.300Z,28.28
2018-09-19T07:16:33.090Z,29.11
2018-09-19T07:19:03.584Z,28.99
2018-09-19T07:21:33.875Z,28.72
2018-09-19T07:24:04.305Z,29.19
2018-09-19T07:26:34.621Z,28.54
2018-09-19T07:29:05.180Z,28.32
2018-09-19T07:31:35.684Z,28.34
2018-09-19T07:34:06.288Z,29.18
2018-09-19T07:36:37.488Z,29.69
2018-09-19T07:39:11.468Z,29.09
2018-09-19T07:41:41.904Z,29.44
2018-09-19T07:44:12.431Z,29.51
2018-09-19T07:46:43.053Z,29.85
2018-09-19T07:49:13.468Z,29.95
2018-09-19T07:51:43.839Z,28.93
2018-09-19T07:54:14.151Z,29.58
2018-09-19T07:56:44.553Z,29.40
2018-09-19T07:59:15.095Z,29.28
2018-09-19T08:01:45.554Z,29.46
2018-09-19T08:04:16.059Z,28.84
2018-09-19T08:06:46.560Z,28.78
2018-09-19T08:09:17.129Z,28.79
2018-09-19T08:11:47.620Z,29.40
2018-09-19T08:14:18.040Z,29.62
2018-09-19T08:16:48.451Z,29.08
2018-09-19T08:19:18.804Z,29.36
2018-09-19T08:21:49.316Z,29.19
2018-09-19T08:24:19.668Z,29.28
2018-09-19T08:26:50.083Z,29.29
2018-09-19T08:29:20.518Z,29.02
2018-09-19T08:31:50.826Z,28.61
2018-09-19T08:34:21.409Z,27.74
2018-09-19T08:36:51.879Z,28.43
2018-09-19T08:39:22.259Z,29.07
2018-09-19T08:41:52.741Z,29.21
2018-09-19T08:44:23.196Z,29.36
2018-09-19T08:46:53.583Z,28.42
2018-09-19T08:49:23.981Z,28.89
2018-09-19T08:51:54.468Z,28.05
2018-09-19T08:54:24.897Z,28.55
2018-09-19T08:56:55.235Z,28.51
2018-09-19T08:59:25.698Z,27.80
2018-09-19T09:01:56.099Z,27.90
2018-09-19T09:04:26.457Z,27.88
2018-09-19T09:06:56.727Z,28.17
2018-09-19T09:09:27.164Z,28.30
2018-09-19T09:11:57.462Z,28.14
2018-09-19T09:14:27.932Z,28.28
2018-09-19T09:16:58.343Z,28.05
2018-09-19T09:19:28.700Z,28.20
2018-09-19T09:21:59.048Z,28.04
2018-09-19T09:24:29.494Z,28.68
2018-09-19T09:26:59.980Z,28.29
2018-09-19T09:29:30.342Z,28.39
2018-09-19T09:32:00.844Z,28.44
2018-09-19T09:34:31.509Z,28.24
2018-09-19T09:37:01.924Z,28.78
2018-09-19T09:39:32.251Z,28.63
2018-09-19T09:42:02.544Z,28.28
2018-09-19T09:44:32.922Z,28.41
2018-09-19T09:47:03.144Z,28.76
2018-09-19T09:49:33.337Z,28.50
2018-09-19T09:52:03.836Z,27.93
2018-09-19T09:54:34.217Z,28.73
2018-09-19T09:57:05.366Z,28.72
2018-09-19T09:59:35.693Z,28.78
2018-09-19T10:02:06.026Z,27.68
2018-09-19T10:04:36.344Z,28.25
2018-09-19T10:07:07.078Z,28.32
2018-09-19T10:09:37.673Z,27.47
2018-09-19T10:12:08.146Z,27.77
2018-09-19T10:14:38.543Z,27.71
2018-09-19T10:17:09.131Z,27.61
2018-09-19T10:19:39.370Z,27.91
2018-09-19T10:22:09.841Z,27.14
2018-09-19T10:24:40.212Z,27.24
2018-09-19T10:27:11.433Z,27.64
2018-09-19T10:29:41.954Z,27.59
2018-09-19T10:32:12.636Z,28.13
2018-09-19T10:34:42.955Z,27.67
2018-09-19T10:37:13.420Z,27.21
2018-09-19T10:39:43.868Z,27.79
2018-09-19T10:42:14.196Z,27.66
2018-09-19T10:44:44.646Z,27.93
2018-09-19T10:47:15.093Z,28.30
2018-09-19T10:49:45.435Z,28.41
2018-09-19T10:52:15.737Z,28.51
2018-09-19T10:54:46.155Z,28.71
2018-09-19T10:57:16.584Z,29.01
2018-09-19T10:59:47.051Z,28.83
2018-09-19T11:02:18.637Z,28.96
2018-09-19T11:04:48.904Z,29.17
2018-09-19T11:07:19.413Z,28.84
2018-09-19T11:09:50.045Z,28.87
2018-09-19T11:12:20.551Z,29.16
2018-09-19T11:14:50.813Z,29.33
2018-09-19T11:17:21.191Z,29.07
2018-09-19T11:19:51.656Z,28.91
2018-09-19T11:22:22.063Z,28.72
2018-09-19T11:24:52.619Z,28.95
2018-09-19T11:27:23.028Z,28.99
2018-09-19T11:29:53.504Z,28.97
2018-09-19T11:32:23.761Z,28.96
2018-09-19T11:34:54.216Z,28.99
2018-09-19T11:37:24.538Z,28.87
2018-09-19T11:39:55.103Z,29.03
2018-09-19T11:42:25.574Z,29.15
2018-09-19T11:44:55.950Z,29.25
2018-09-19T11:47:26.183Z,29.13
2018-09-19T11:49:56.633Z,29.18
2018-09-19T11:52:27.136Z,29.50
2018-09-19T11:54:57.592Z,29.51
2018-09-19T11:57:27.960Z,29.45
2018-09-19T11:59:58.472Z,29.24
2018-09-19T12:02:28.857Z,29.36
2018-09-19T12:04:59.238Z,29.40
2018-09-19T12:07:29.471Z,29.53
2018-09-19T12:09:59.968Z,29.14
2018-09-19T12:12:30.407Z,29.60
2018-09-19T12:15:01.160Z,29.58
2018-09-19T12:17:31.665Z,29.55
2018-09-19T12:20:02.227Z,29.39
2018-09-19T12:22:32.484Z,29.35
2018-09-19T12:25:02.899Z,29.62
2018-09-19T12:27:33.447Z,29.27
2018-09-19T12:30:04.072Z,29.45
2018-09-19T12:32:35.276Z,29.62
2018-09-19T12:35:05.928Z,29.52
2018-09-19T12:37:36.340Z,29.46
2018-09-19T12:40:07.129Z,29.62
2018-09-19T12:42:37.629Z,29.59
2018-09-19T12:45:09.719Z,29.53
2018-09-19T12:47:39.998Z,29.57
2018-09-19T12:50:10.383Z,29.29
2018-09-19T12:52:40.740Z,29.41
2018-09-19T12:55:11.265Z,29.35
2018-09-19T12:57:41.641Z,29.58
2018-09-19T13:00:12.098Z,29.75
2018-09-19T13:02:42.420Z,29.63
2018-09-19T13:05:12.933Z,29.67
2018-09-19T13:07:43.407Z,29.68
2018-09-19T13:10:13.893Z,29.67
2018-09-19T13:12:44.487Z,29.63
2018-09-19T13:15:14.812Z,29.71
2018-09-19T13:17:45.258Z,29.68
2018-09-19T13:20:15.549Z,29.57
2018-09-19T13:22:46.509Z,29.35
2018-09-19T13:25:17.025Z,29.37
2018-09-19T13:27:47.316Z,29.43
2018-09-19T13:30:17.820Z,29.63
2018-09-19T13:32:48.080Z,29.64
2018-09-19T13:35:18.452Z,29.44
2018-09-19T13:37:48.923Z,29.35
2018-09-19T13:40:19.514Z,29.40
2018-09-19T13:42:49.983Z,29.40
2018-09-19T13:45:20.153Z,29.31
2018-09-19T13:47:50.527Z,29.16
2018-09-19T13:50:39.929Z,29.32
2018-09-19T13:53:10.690Z,29.16
2018-09-19T13:55:41.024Z,29.21
2018-09-19T13:58:13.204Z,29.28
2018-09-19T14:00:43.591Z,29.35
2018-09-19T14:03:14.079Z,29.44
2018-09-19T14:05:44.412Z,29.40
2018-09-19T14:08:14.737Z,29.41
2018-09-19T14:10:45.411Z,29.41
2018-09-19T14:13:16.124Z,29.34
2018-09-19T14:15:46.688Z,29.29
2018-09-19T14:18:17.274Z,29.13
2018-09-19T14:20:47.555Z,29.06
2018-09-19T14:23:17.912Z,29.12
2018-09-19T14:25:48.399Z,29.02
2018-09-19T14:28:18.799Z,28.92
2018-09-19T14:30:49.981Z,28.94
2018-09-19T14:33:20.435Z,29.04
2018-09-19T14:35:50.968Z,29.05
2018-09-19T14:38:21.425Z,28.97
2018-09-19T14:40:51.867Z,28.99
2018-09-19T14:43:22.211Z,29.03
2018-09-19T14:45:53.004Z,29.03
2018-09-19T14:48:23.494Z,28.96
2018-09-19T14:50:54.007Z,28.83
2018-09-19T14:53:24.383Z,28.90
2018-09-19T14:55:54.662Z,28.93
2018-09-19T14:58:25.022Z,28.93
2018-09-19T15:00:55.324Z,29.01
2018-09-19T15:03:25.704Z,28.99
2018-09-19T15:05:56.195Z,28.99
2018-09-19T15:08:26.653Z,28.93
2018-09-19T15:10:57.054Z,29.00
2018-09-19T15:13:27.537Z,29.00
2018-09-19T15:15:58.040Z,28.85
2018-09-19T15:18:28.551Z,28.97
2018-09-19T15:20:58.945Z,28.91
2018-09-19T15:23:29.206Z,28.84
2018-09-19T15:25:59.553Z,28.76
2018-09-19T15:28:30.153Z,28.70
2018-09-19T15:31:00.600Z,28.74
2018-09-19T15:33:30.822Z,28.62
2018-09-19T15:36:01.338Z,28.75
2018-09-19T15:38:31.872Z,28.63
2018-09-19T15:41:02.415Z,28.53
2018-09-19T15:43:32.970Z,28.35
2018-09-19T15:46:03.375Z,28.37
2018-09-19T15:48:33.662Z,28.48
2018-09-19T15:51:03.928Z,28.29
2018-09-19T15:53:34.376Z,28.27
2018-09-19T15:56:04.729Z,28.23
2018-09-19T15:58:35.112Z,28.16
2018-09-19T16:01:05.622Z,28.05
2018-09-19T16:03:35.948Z,28.00
2018-09-19T16:06:06.462Z,27.94
2018-09-19T16:08:36.839Z,27.99
2018-09-19T16:11:07.927Z,27.86
2018-09-19T16:13:38.430Z,27.85
2018-09-19T16:16:09.571Z,27.83
2018-09-19T16:18:40.019Z,27.68
2018-09-19T16:21:10.624Z,27.59
2018-09-19T16:23:40.946Z,27.43
2018-09-19T16:26:11.403Z,27.39
2018-09-19T16:28:41.807Z,27.27
2018-09-19T16:31:12.230Z,27.26
2018-09-19T16:33:42.735Z,27.15
2018-09-19T16:36:13.330Z,27.16
2018-09-19T16:38:43.684Z,27.10
2018-09-19T16:41:13.971Z,27.14
2018-09-19T16:43:44.460Z,26.94
2018-09-19T16:46:14.856Z,26.94
2018-09-19T16:48:45.296Z,26.80
2018-09-19T16:51:15.688Z,26.64
2018-09-19T16:53:46.159Z,26.55
2018-09-19T16:56:16.702Z,26.45
2018-09-19T16:58:47.133Z,26.35
2018-09-19T17:01:17.569Z,26.22
2018-09-19T17:03:48.070Z,26.09
2018-09-19T17:06:18.424Z,26.00
2018-09-19T17:08:48.800Z,25.95
2018-09-19T17:11:19.301Z,25.83
2018-09-19T17:13:50.184Z,25.69
2018-09-19T17:16:20.926Z,25.54
2018-09-19T17:18:51.364Z,25.40
2018-09-19T17:21:21.971Z,25.27
2018-09-19T17:23:52.362Z,25.14
2018-09-19T17:26:22.661Z,25.01
2018-09-19T17:28:53.072Z,24.89
2018-09-19T17:31:23.526Z,24.77
2018-09-19T17:33:53.992Z,24.70
2018-09-19T17:36:24.233Z,24.58
2018-09-19T17:38:54.653Z,24.48
2018-09-19T17:41:25.159Z,24.39
2018-09-19T17:43:55.682Z,24.26
2018-09-19T17:46:25.882Z,24.21
2018-09-19T17:48:56.389Z,24.10
2018-09-19T17:51:27.000Z,24.02
2018-09-19T17:53:57.539Z,23.97
2018-09-19T17:56:27.999Z,23.90
2018-09-19T17:58:58.391Z,23.84
2018-09-19T18:01:28.807Z,23.75
2018-09-19T18:03:59.399Z,23.66
2018-09-19T18:06:29.889Z,23.54
2018-09-19T18:09:00.196Z,23.47
2018-09-19T18:11:30.596Z,23.41
2018-09-19T18:14:01.058Z,23.38
2018-09-19T18:16:31.604Z,23.29
2018-09-19T18:19:02.006Z,23.23
2018-09-19T18:21:32.584Z,23.13
2018-09-19T18:24:02.857Z,23.08
2018-09-19T18:26:33.304Z,22.94
2018-09-19T18:29:03.682Z,22.87
2018-09-19T18:31:34.252Z,22.84
2018-09-19T18:34:04.748Z,22.80
2018-09-19T18:36:35.038Z,22.84
2018-09-19T18:39:06.357Z,22.81
2018-09-19T18:41:37.388Z,22.76
2018-09-19T18:44:07.994Z,22.72
2018-09-19T18:46:38.500Z,22.69
2018-09-19T18:49:08.891Z,22.64
2018-09-19T18:51:39.460Z,22.62
2018-09-19T18:54:09.936Z,22.55
2018-09-19T18:56:40.508Z,22.58
2018-09-19T18:59:10.973Z,22.57
2018-09-19T19:01:41.451Z,22.54
2018-09-19T19:04:12.327Z,22.47
2018-09-19T19:06:42.918Z,22.39
2018-09-19T19:09:13.871Z,22.38
2018-09-19T19:11:44.520Z,22.17
2018-09-19T19:14:15.347Z,22.15
2018-09-19T19:16:45.949Z,22.07
2018-09-19T19:19:16.562Z,22.02
2018-09-19T19:21:47.150Z,21.94
2018-09-19T19:24:17.652Z,21.94
2018-09-19T19:26:48.232Z,21.97
2018-09-19T19:29:18.482Z,22.03
2018-09-19T19:31:48.920Z,22.00
2018-09-19T19:34:19.308Z,22.07
2018-09-19T19:36:49.924Z,22.09
2018-09-19T19:39:20.436Z,22.24
2018-09-19T19:41:50.935Z,22.26
2018-09-19T19:44:21.190Z,22.20
2018-09-19T19:46:51.499Z,22.11
2018-09-19T19:49:22.063Z,22.05
2018-09-19T19:51:52.573Z,21.98
2018-09-19T19:54:22.914Z,21.90
2018-09-19T19:56:53.255Z,21.86
2018-09-19T19:59:23.736Z,21.81
2018-09-19T20:01:54.101Z,21.73
2018-09-19T20:04:24.506Z,21.66
2018-09-19T20:06:54.963Z,21.57
2018-09-19T20:09:25.226Z,21.50
2018-09-19T20:11:55.622Z,21.42
2018-09-19T20:14:25.921Z,21.35
2018-09-19T20:16:56.385Z,21.28
2018-09-19T20:19:27.145Z,21.20
2018-09-19T20:21:57.524Z,21.15
2018-09-19T20:24:27.780Z,21.07
2018-09-19T20:26:59.000Z,20.97
2018-09-19T20:29:29.259Z,20.89
2018-09-19T20:31:59.649Z,20.83
2018-09-19T20:34:30.371Z,20.79
2018-09-19T20:37:00.980Z,20.74
2018-09-19T20:39:31.587Z,20.66
2018-09-19T20:42:01.904Z,20.59
2018-09-19T20:44:32.285Z,20.55
2018-09-19T20:47:02.790Z,20.51
2018-09-19T20:49:33.302Z,20.47
2018-09-19T20:52:03.813Z,20.43
2018-09-19T20:54:34.403Z,20.40
2018-09-19T20:57:04.997Z,20.37
2018-09-19T20:59:35.585Z,20.38
2018-09-19T21:02:06.060Z,20.35
2018-09-19T21:04:36.515Z,20.25
2018-09-19T21:07:07.001Z,20.21
2018-09-19T21:09:37.960Z,20.11
2018-09-19T21:12:08.375Z,20.05
2018-09-19T21:14:38.730Z,19.97
2018-09-19T21:17:09.279Z,19.94
2018-09-19T21:19:39.796Z,20.00
2018-09-19T21:22:10.228Z,20.03
2018-09-19T21:24:40.631Z,20.05
2018-09-19T21:27:10.973Z,20.05
2018-09-19T21:29:41.358Z,20.05
2018-09-19T21:32:12.047Z,20.04
2018-09-19T21:34:42.426Z,20.02
2018-09-19T21:37:12.776Z,19.99
2018-09-19T21:39:43.347Z,20.00
2018-09-19T21:42:13.745Z,19.99
2018-09-19T21:44:44.156Z,20.15
2018-09-19T21:47:14.524Z,20.25
2018-09-19T21:49:44.798Z,20.27
2018-09-19T21:52:15.172Z,20.29
2018-09-19T21:54:45.767Z,20.34
2018-09-19T21:57:16.208Z,20.34
2018-09-19T21:59:46.682Z,20.35
2018-09-19T22:02:18.387Z,20.35
2018-09-19T22:04:49.435Z,20.37
2018-09-19T22:07:19.860Z,20.37
2018-09-19T22:09:50.230Z,20.38
2018-09-19T22:12:20.643Z,20.29
2018-09-19T22:14:50.997Z,20.24
2018-09-19T22:17:21.435Z,20.19
2018-09-19T22:19:52.080Z,20.10
2018-09-19T22:22:22.471Z,20.05
2018-09-19T22:24:52.967Z,19.96
2018-09-19T22:27:23.484Z,19.90
2018-09-19T22:29:53.845Z,19.85
2018-09-19T22:32:24.326Z,19.78
2018-09-19T22:34:54.739Z,19.73
2018-09-19T22:37:25.243Z,19.72
2018-09-19T22:39:55.825Z,19.69
2018-09-19T22:42:26.646Z,19.69
2018-09-19T22:44:57.199Z,19.70
2018-09-19T22:47:27.688Z,19.66
2018-09-19T22:49:58.152Z,19.63
2018-09-19T22:52:28.512Z,19.63
2018-09-19T22:54:58.980Z,19.58
2018-09-19T22:57:29.563Z,19.57
2018-09-19T22:59:59.900Z,19.54
2018-09-19T23:02:30.252Z,19.51
2018-09-19T23:05:00.524Z,19.53
2018-09-19T23:07:30.955Z,19.50
2018-09-19T23:10:01.462Z,19.44
2018-09-19T23:12:31.817Z,19.40
2018-09-19T23:15:02.060Z,19.39
2018-09-19T23:17:32.342Z,19.33
2018-09-19T23:20:02.785Z,19.30
2018-09-19T23:22:32.991Z,19.26
2018-09-19T23:25:03.389Z,19.20
2018-09-19T23:27:33.718Z,19.17
2018-09-19T23:30:04.180Z,19.15
2018-09-19T23:32:34.535Z,19.11
2018-09-19T23:35:05.051Z,19.07
2018-09-19T23:37:35.510Z,19.03
2018-09-19T23:40:06.195Z,19.01
2018-09-19T23:42:36.868Z,18.96
2018-09-19T23:45:07.745Z,18.92
2018-09-19T23:47:38.075Z,18.84
2018-09-19T23:50:08.580Z,18.80
2018-09-19T23:52:38.907Z,18.74
2018-09-19T23:55:09.309Z,18.69
2018-09-19T23:57:39.671Z,18.63
